Terminal Aerodrome Forecast
Issued by NWS

Home | Current Version | Previous Version | Text Only | Print | Product List | Glossary On
Versions: 1 2 3 4 5 6 7 8 9 10 11 12 13
137
FTUS44 KEPZ 232339
TAFLRU
TAF
KLRU 232339Z 2400/2424 25023G33KT P6SM SKC
     FM240300 28017G27KT P6SM SKC
     FM240600 28013G23KT P6SM SCT250
     FM241800 26022G32KT P6SM SCT200=

USA.gov is the U.S. government's official web portal to all federal, state and local government web resources and services.